Pagrindinis puslapis
METAR-TAF:

METAR-TAF

Oro uostai :

Biak, Indonezija

platuma: 01-11S, ilguma: 136-07E, Aukštis: 11 m

METAR: trūkstamas

Laikas: 08:15 (01:15 UTC)

Prognozė

Ataskaita buvo paskelbta 2 valandos ir 15 minutes, ne 23:00 UTC
Prognozė galioja nuo 26 metu 00 UTC su 27 metu 06 UTC
Vėjas 8 kt iš Vakarų
Matomumas 10 km arba daugiau
Išsisklaidę debesys ne aukštis 1800 ft
Tikimybė 40% :
Laikinai
nuo 26 metu 00 UTC su 26 metu 04 UTC
Su prošvaistėmis ne aukštis 1800 ft
lietus

TAF: WABB 252300Z 2600/2706 28008KT 9999 SCT018 PROB40 TEMPO 2600/2604 RA BKN018

Orai ataskaitas ir orų prognozės (METAR, TAF).

turimą stotys yra geltonos ir raudonos taškus žemėlapyje.

Perkelti pele per norėdami pamatyti stoties vardą.

Tada spustelėkite, norėdami matyti oro stebėjimo ir prognozės.

Norėdami pakeisti žemėlapį: spustelėkite ant žalios mygtukų su juodo kryžiaus žemyn,; žalią mygtuką su brūkšneliu, jei norite nutolinti; arba žalių rodyklių gretimoms žemėlapius.


METAR-TAF: